Riskybusiness — WDC4820 — position and weather

sailwx.info

Track history (hours):
 
Tides and Currents Weather Stations Pressure Air Temp Water Temp Dewpoint Dewpoint Depression Visibility Wind Speed Wind Dir Waves Ship Positions

Riskybusiness

Owner: mikuletzky, hunter r, manahawkin, NJ. More information available from US FCC via Universal Licensing System and Coast Guard Vessel Documentation Center.

Last reported at 2017-Nov-15 13:04 UTC. Time now 2017-Nov-19 10:23 UTC.
Position N 39°45' W 074°07'.

Length 14 m.

Type: Fishing. MMSI: 367031170.

Date/timePositionNaut miles runAvg speedWind from/ knotsBaromVisibWave heightAir tempDewpointWater temp
2017-Nov-15 13:04N 39°45' W 074°07'0 0.0
2017-Nov-15 12:58N 39°45' W 074°07'0 0.1
2017-Nov-15 12:30N 39°45' W 074°07'1 2.3
2017-Nov-15 12:00N 39°46' W 074°06'1 2.1
2017-Nov-15 11:26N 39°45' W 074°07'  
2017-Nov-12 21:56N 39°45' W 074°07'0 0.1
2017-Nov-12 21:28N 39°45' W 074°07'0 0.0
2017-Nov-12 20:58N 39°45' W 074°07'2 3.7
2017-Nov-12 20:29N 39°45' W 074°05'3 6.7
2017-Nov-12 20:00N 39°42' W 074°02'0 0.4
2017-Nov-12 19:27N 39°42' W 074°02'0 0.9
2017-Nov-12 18:59N 39°42' W 074°03'0 0.6
2017-Nov-12 18:28N 39°42' W 074°03'0 0.3
2017-Nov-12 17:58N 39°42' W 074°03'1 1.2
2017-Nov-12 17:30N 39°42' W 074°02'0 0.4
2017-Nov-12 16:59N 39°42' W 074°02'1 1.8
2017-Nov-12 16:27N 39°42' W 074°03'1 1.3
2017-Nov-12 16:00N 39°42' W 074°02'0 0.1
2017-Nov-12 15:30N 39°42' W 074°02'0 0.4
2017-Nov-12 14:58N 39°42' W 074°03'0 0.6
2017-Nov-12 14:28N 39°42' W 074°03'0 0.4
2017-Nov-12 14:00N 39°42' W 074°03'0 0.7
2017-Nov-12 13:30N 39°42' W 074°03'2 4.1
2017-Nov-12 13:00N 39°43' W 074°05'1 2.6
2017-Nov-12 12:30N 39°45' W 074°05'0 0.2
2017-Nov-12 12:00N 39°45' W 074°05'1 2.5
2017-Nov-12 11:29N 39°46' W 074°06'1 2.4
2017-Nov-12 11:00N 39°45' W 074°07'  
2017-Nov-09 15:21N 39°45' W 074°07'2 5.2
2017-Nov-09 15:00N 39°47' W 074°07'3 5.1
2017-Nov-09 14:30N 39°49' W 074°09'2 0.0
2017-Nov-07 13:21N 39°50' W 074°11'2 5.0
2017-Nov-07 13:00N 39°49' W 074°09'3 6.2
2017-Nov-07 12:29N 39°47' W 074°07'2 0.1
2017-Nov-06 22:49N 39°45' W 074°07'0 0.1
2017-Nov-06 22:29N 39°45' W 074°07'0 0.0
2017-Nov-06 21:59N 39°45' W 074°07'1 2.3
2017-Nov-06 21:30N 39°46' W 074°06'4 7.8
2017-Nov-06 21:00N 39°43' W 074°03'  
Track history (hours):
 
Tides and Currents Weather Stations Pressure Air Temp Water Temp Dewpoint Dewpoint Depression Visibility Wind Speed Wind Dir Waves Ship Positions

Riskybusiness

Owner: mikuletzky, hunter r, manahawkin, NJ. More information available from US FCC via Universal Licensing System and Coast Guard Vessel Documentation Center.

Last reported at 2017-Nov-15 13:04 UTC. Time now 2017-Nov-19 10:23 UTC.
Position N 39°45' W 074°07'.

Length 14 m.

Type: Fishing. MMSI: 367031170.

Date/timePositionNaut miles runAvg speedWind from/ knotsBaromVisibWave heightAir tempDewpointWater temp
2017-Nov-15 13:04N 39°45' W 074°07'0 0.0
2017-Nov-15 12:58N 39°45' W 074°07'0 0.1
2017-Nov-15 12:30N 39°45' W 074°07'1 2.3
2017-Nov-15 12:00N 39°46' W 074°06'1 2.1
2017-Nov-15 11:26N 39°45' W 074°07'  
2017-Nov-12 21:56N 39°45' W 074°07'0 0.1
2017-Nov-12 21:28N 39°45' W 074°07'0 0.0
2017-Nov-12 20:58N 39°45' W 074°07'2 3.7
2017-Nov-12 20:29N 39°45' W 074°05'3 6.7
2017-Nov-12 20:00N 39°42' W 074°02'0 0.4
2017-Nov-12 19:27N 39°42' W 074°02'0 0.9
2017-Nov-12 18:59N 39°42' W 074°03'0 0.6
2017-Nov-12 18:28N 39°42' W 074°03'0 0.3
2017-Nov-12 17:58N 39°42' W 074°03'1 1.2
2017-Nov-12 17:30N 39°42' W 074°02'0 0.4
2017-Nov-12 16:59N 39°42' W 074°02'1 1.8
2017-Nov-12 16:27N 39°42' W 074°03'1 1.3
2017-Nov-12 16:00N 39°42' W 074°02'0 0.1
2017-Nov-12 15:30N 39°42' W 074°02'0 0.4
2017-Nov-12 14:58N 39°42' W 074°03'0 0.6
2017-Nov-12 14:28N 39°42' W 074°03'0 0.4
2017-Nov-12 14:00N 39°42' W 074°03'0 0.7
2017-Nov-12 13:30N 39°42' W 074°03'2 4.1
2017-Nov-12 13:00N 39°43' W 074°05'1 2.6
2017-Nov-12 12:30N 39°45' W 074°05'0 0.2
2017-Nov-12 12:00N 39°45' W 074°05'1 2.5
2017-Nov-12 11:29N 39°46' W 074°06'1 2.4
2017-Nov-12 11:00N 39°45' W 074°07'  
2017-Nov-09 15:21N 39°45' W 074°07'2 5.2
2017-Nov-09 15:00N 39°47' W 074°07'3 5.1
2017-Nov-09 14:30N 39°49' W 074°09'2 0.0
2017-Nov-07 13:21N 39°50' W 074°11'2 5.0
2017-Nov-07 13:00N 39°49' W 074°09'3 6.2
2017-Nov-07 12:29N 39°47' W 074°07'2 0.1
2017-Nov-06 22:49N 39°45' W 074°07'0 0.1
2017-Nov-06 22:29N 39°45' W 074°07'0 0.0
2017-Nov-06 21:59N 39°45' W 074°07'1 2.3
2017-Nov-06 21:30N 39°46' W 074°06'4 7.8
2017-Nov-06 21:00N 39°43' W 074°03'  

Dump ship's entire track history